createdAt,value
2023-02-03T00:02:11.630Z,98884.19
2023-02-03T00:07:15.546Z,98881.97
2023-02-03T00:12:43.097Z,98880.69
2023-02-03T00:17:45.117Z,98876.13
2023-02-03T00:22:46.969Z,98873.34
2023-02-03T00:27:48.832Z,98870.66
2023-02-03T00:32:50.691Z,98875.13
2023-02-03T00:37:54.020Z,98862.19
2023-02-03T00:42:56.803Z,98852.84
2023-02-03T00:47:59.067Z,98842.81
2023-02-03T00:53:00.901Z,98833.75
2023-02-03T00:58:02.840Z,98832.16
2023-02-03T01:03:06.013Z,98822.38
2023-02-03T01:08:07.939Z,98810.56
2023-02-03T01:13:09.810Z,98796.72
2023-02-03T01:18:11.650Z,98791.53
2023-02-03T01:23:13.497Z,98771.28
2023-02-03T01:28:15.626Z,98761.13
2023-02-03T01:33:17.544Z,98744.72
2023-02-03T01:38:19.580Z,98730.31
2023-02-03T01:43:31.810Z,98715.59
2023-02-03T01:48:35.850Z,98705.84
2023-02-03T01:53:39.408Z,98705.66
2023-02-03T01:58:43.765Z,98704.28
2023-02-03T02:03:54.282Z,98689.75
2023-02-03T02:08:58.052Z,98668.28
2023-02-03T02:14:03.230Z,98656.75
2023-02-03T02:19:47.590Z,98636.69
2023-02-03T02:25:27.119Z,98629.31
2023-02-03T02:31:31.936Z,98622.13
2023-02-03T02:37:02.623Z,98616.53
2023-02-03T02:42:07.978Z,98597.00
2023-02-03T02:47:19.912Z,98575.28
2023-02-03T02:52:25.198Z,98580.22
2023-02-03T02:57:30.602Z,98574.44
2023-02-03T03:02:35.178Z,98564.84
2023-02-03T03:07:56.167Z,98542.13
2023-02-03T03:13:07.865Z,98523.34
2023-02-03T03:18:16.921Z,98521.03
2023-02-03T03:23:32.239Z,98525.25
2023-02-03T03:29:03.303Z,98512.50
2023-02-03T03:34:05.538Z,98511.56
2023-02-03T03:39:23.644Z,98500.06
2023-02-03T03:44:30.841Z,98499.28
2023-02-03T03:49:34.423Z,98491.84
2023-02-03T03:54:38.731Z,98503.88
2023-02-03T03:59:44.301Z,98513.84
2023-02-03T04:04:48.000Z,98478.31
2023-02-03T04:09:49.967Z,98474.81
2023-02-03T04:14:51.880Z,98448.16
2023-02-03T04:19:53.898Z,98437.69
2023-02-03T04:24:59.060Z,98432.09
2023-02-03T04:30:01.004Z,98443.03
2023-02-03T04:35:04.285Z,98432.06
2023-02-03T04:40:06.882Z,98426.03
2023-02-03T04:45:10.771Z,98430.91
2023-02-03T04:50:12.845Z,98429.47
2023-02-03T04:55:14.837Z,98426.00
2023-02-03T05:00:16.853Z,98432.97
2023-02-03T05:05:19.049Z,98425.81
2023-02-03T05:10:20.865Z,98435.94
2023-02-03T05:15:22.635Z,98424.50
2023-02-03T05:20:24.822Z,98410.38
2023-02-03T05:25:27.165Z,98376.91
2023-02-03T05:30:29.418Z,98387.78
2023-02-03T05:35:33.738Z,98371.13
2023-02-03T05:40:54.346Z,98362.34
2023-02-03T05:46:01.438Z,98352.00
2023-02-03T05:51:03.539Z,98371.38
2023-02-03T05:56:05.832Z,98362.31
2023-02-03T06:01:07.872Z,98378.75
2023-02-03T06:06:09.830Z,98380.91
2023-02-03T06:11:12.367Z,98366.75
2023-02-03T06:16:14.760Z,98360.72
2023-02-03T06:21:16.811Z,98340.72
2023-02-03T06:26:18.738Z,98357.03
2023-02-03T06:31:21.056Z,98345.25
2023-02-03T06:36:23.845Z,98335.38
2023-02-03T06:41:30.749Z,98329.31
2023-02-03T06:46:34.159Z,98322.47
2023-02-03T06:51:36.912Z,98316.72
2023-02-03T06:56:38.954Z,98319.75
2023-02-03T07:01:40.980Z,98296.47
2023-02-03T07:06:42.975Z,98313.00
2023-02-03T07:11:44.984Z,98283.19
2023-02-03T07:16:46.940Z,98279.69
2023-02-03T07:21:48.900Z,98273.97
2023-02-03T07:26:50.794Z,98269.69
2023-02-03T07:31:52.937Z,98261.72
2023-02-03T07:36:55.023Z,98259.59
2023-02-03T07:41:57.075Z,98260.50
2023-02-03T07:46:59.081Z,98253.63
2023-02-03T07:52:01.016Z,98242.97
2023-02-03T07:57:02.994Z,98235.97
2023-02-03T08:02:06.171Z,98218.06
2023-02-03T08:07:08.124Z,98235.97
2023-02-03T08:12:10.093Z,98230.09
2023-02-03T08:17:12.031Z,98205.81
2023-02-03T08:22:16.283Z,98201.53
2023-02-03T08:27:20.696Z,98192.31
2023-02-03T08:32:23.719Z,98181.97
2023-02-03T08:37:26.851Z,98189.41
2023-02-03T08:42:28.741Z,98199.84
2023-02-03T08:47:30.638Z,98183.53
2023-02-03T08:52:32.460Z,98180.41
2023-02-03T08:57:36.072Z,98156.75
2023-02-03T09:02:37.920Z,98163.53
2023-02-03T09:07:40.160Z,98142.56
2023-02-03T09:12:42.023Z,98149.88
2023-02-03T09:17:43.857Z,98127.97
2023-02-03T09:22:45.863Z,98117.03
2023-02-03T09:27:48.364Z,98117.81
2023-02-03T09:32:54.542Z,98093.97
2023-02-03T09:37:56.396Z,98100.19
2023-02-03T09:43:07.185Z,98081.09
2023-02-03T09:48:19.499Z,98085.03
2023-02-03T09:53:33.551Z,98060.16
2023-02-03T09:58:35.514Z,98048.59
2023-02-03T10:03:40.771Z,98028.91
2023-02-03T10:09:05.673Z,98026.50
2023-02-03T10:14:32.465Z,98016.31
2023-02-03T10:20:09.609Z,98018.66
2023-02-03T10:25:24.999Z,97992.91
2023-02-03T10:30:31.948Z,97977.94
2023-02-03T10:35:49.256Z,97976.84
2023-02-03T10:40:51.242Z,97966.47
2023-02-03T10:45:53.270Z,97969.63
2023-02-03T10:50:57.143Z,97954.97
2023-02-03T10:56:07.888Z,97934.53
2023-02-03T11:01:15.240Z,97939.69
2023-02-03T11:06:17.889Z,97928.19
2023-02-03T11:11:31.551Z,97911.31
2023-02-03T11:16:36.902Z,97916.03
2023-02-03T11:21:48.028Z,97940.06
2023-02-03T11:26:59.798Z,97917.09
2023-02-03T11:32:18.013Z,97928.78
2023-02-03T11:37:50.218Z,97884.44
2023-02-03T11:42:52.376Z,97917.91
2023-02-03T11:48:02.628Z,97893.66
2023-02-03T11:53:10.299Z,97901.97
2023-02-03T11:58:36.188Z,97888.22
2023-02-03T12:03:40.585Z,97911.13
2023-02-03T12:08:56.155Z,97857.56
2023-02-03T12:14:25.119Z,97801.25
2023-02-03T12:19:39.253Z,97741.91
2023-02-03T12:25:07.437Z,97749.66
2023-02-03T12:30:37.679Z,97822.78
2023-02-03T12:35:49.210Z,97803.34
2023-02-03T12:40:58.701Z,97808.13
2023-02-03T12:46:04.663Z,97852.66
2023-02-03T12:51:13.930Z,97836.25
2023-02-03T12:56:23.488Z,97835.72
2023-02-03T13:01:40.393Z,97812.97
2023-02-03T13:07:02.740Z,97817.84
2023-02-03T13:12:19.772Z,97781.47
2023-02-03T13:17:28.114Z,97812.09
2023-02-03T13:22:29.949Z,97838.69
2023-02-03T13:27:46.371Z,97852.31
2023-02-03T13:33:09.025Z,97897.91
2023-02-03T13:38:33.505Z,97897.84
2023-02-03T13:43:40.762Z,97897.38
2023-02-03T13:48:45.895Z,97910.00
2023-02-03T13:53:50.319Z,97908.50
2023-02-03T13:59:07.036Z,97928.78
2023-02-03T14:04:27.722Z,97914.84
2023-02-03T14:09:35.843Z,97944.56
2023-02-03T14:14:37.757Z,97944.97
2023-02-03T14:19:51.936Z,97947.53
2023-02-03T14:24:56.819Z,97950.59
2023-02-03T14:30:04.711Z,97959.13
2023-02-03T14:35:16.632Z,97975.31
2023-02-03T14:40:27.176Z,97994.69
2023-02-03T14:45:43.930Z,97999.28
2023-02-03T14:51:17.040Z,97986.06
2023-02-03T14:57:01.190Z,98003.03
2023-02-03T15:02:02.945Z,97990.66
2023-02-03T15:07:04.968Z,97985.06
2023-02-03T15:12:27.174Z,97990.47
2023-02-03T15:17:30.645Z,98008.03
2023-02-03T15:22:38.092Z,98006.09
2023-02-03T15:27:39.978Z,98015.13
2023-02-03T15:32:50.227Z,98017.00
2023-02-03T15:37:57.957Z,98028.28
2023-02-03T15:42:59.831Z,98033.69
2023-02-03T15:48:07.189Z,98053.00
2023-02-03T15:53:47.978Z,98043.00
2023-02-03T15:58:50.692Z,98060.00
2023-02-03T16:03:54.521Z,98056.63
2023-02-03T16:08:57.545Z,98068.22
2023-02-03T16:14:03.459Z,98079.59
2023-02-03T16:19:13.297Z,98073.41
2023-02-03T16:24:32.295Z,98089.81
2023-02-03T16:29:55.795Z,98095.56
2023-02-03T16:35:16.088Z,98109.06
2023-02-03T16:40:40.154Z,98117.84
2023-02-03T16:46:00.626Z,98102.78
2023-02-03T16:51:04.905Z,98117.38
2023-02-03T16:56:06.971Z,98124.38
2023-02-03T17:01:11.761Z,98139.56
2023-02-03T17:06:15.077Z,98152.94
2023-02-03T17:11:20.900Z,98146.41
2023-02-03T17:16:25.968Z,98159.69
2023-02-03T17:21:29.554Z,98156.78
2023-02-03T17:26:31.690Z,98154.50
2023-02-03T17:31:33.550Z,98159.13
2023-02-03T17:36:35.463Z,98165.22
2023-02-03T17:57:37.480Z,98174.00
2023-02-03T18:02:39.735Z,98180.50
2023-02-03T18:07:41.614Z,98174.75
2023-02-03T18:12:43.511Z,98182.44
2023-02-03T18:17:45.507Z,98186.91
2023-02-03T18:22:47.412Z,98216.97
2023-02-03T18:27:51.167Z,98215.97
2023-02-03T18:32:53.079Z,98217.09
2023-02-03T18:37:54.965Z,98248.63
2023-02-03T18:42:56.849Z,98237.56
2023-02-03T18:47:58.781Z,98248.38
2023-02-03T18:53:00.702Z,98238.72
2023-02-03T18:58:02.589Z,98229.25
2023-02-03T19:03:04.486Z,98241.38
2023-02-03T19:08:06.725Z,98227.44
2023-02-03T19:13:08.614Z,98226.09
2023-02-03T19:18:11.243Z,98237.56
2023-02-03T19:23:13.243Z,98239.78
2023-02-03T19:28:20.346Z,98240.91
2023-02-03T19:33:30.443Z,98222.00
2023-02-03T19:38:32.512Z,98227.88
2023-02-03T19:43:34.466Z,98227.88
2023-02-03T19:48:36.710Z,98241.38
2023-02-03T19:53:38.610Z,98247.34
2023-02-03T19:58:40.470Z,98268.47
2023-02-03T20:03:43.957Z,98264.50
2023-02-03T20:08:45.948Z,98277.78
2023-02-03T20:13:48.615Z,98278.97
2023-02-03T20:18:50.495Z,98270.47
2023-02-03T20:23:53.732Z,98312.00
2023-02-03T20:28:55.548Z,98301.78
2023-02-03T20:33:57.481Z,98295.22
2023-02-03T20:38:59.421Z,98289.91
2023-02-03T20:44:02.173Z,98309.59
2023-02-03T20:49:04.049Z,98327.53
2023-02-03T20:54:15.666Z,98300.50
2023-02-03T20:59:19.258Z,98302.41
2023-02-03T21:04:39.712Z,98316.50
2023-02-03T21:09:41.750Z,98312.44
2023-02-03T21:14:49.174Z,98289.31
2023-02-03T21:19:52.257Z,98296.28
2023-02-03T21:24:59.578Z,98311.00
2023-02-03T21:30:11.896Z,98281.56
2023-02-03T21:35:35.264Z,98308.75
2023-02-03T21:40:37.298Z,98305.13
2023-02-03T21:45:43.140Z,98308.25
2023-02-03T21:50:45.038Z,98307.47
2023-02-03T21:55:46.939Z,98332.31
2023-02-03T22:00:49.989Z,98344.03
2023-02-03T22:05:56.051Z,98348.78
2023-02-03T22:10:57.871Z,98362.72
2023-02-03T22:15:59.781Z,98373.47
2023-02-03T22:21:03.291Z,98377.44
2023-02-03T22:26:05.408Z,98375.41
2023-02-03T22:31:08.946Z,98377.66
2023-02-03T22:36:11.731Z,98394.41
2023-02-03T22:41:13.564Z,98418.19
2023-02-03T22:46:15.468Z,98398.88
2023-02-03T22:51:17.306Z,98424.84
2023-02-03T22:56:19.122Z,98400.00
2023-02-03T23:01:21.026Z,98397.78
2023-02-03T23:06:22.834Z,98408.53
2023-02-03T23:11:24.645Z,98420.72
2023-02-03T23:16:26.491Z,98407.91
2023-02-03T23:21:28.325Z,98410.94
2023-02-03T23:26:30.126Z,98410.13
2023-02-03T23:31:32.173Z,98430.56
2023-02-03T23:36:34.053Z,98434.84
2023-02-03T23:41:35.896Z,98426.75
2023-02-03T23:46:37.815Z,98430.88
2023-02-03T23:51:39.595Z,98437.81
2023-02-03T23:56:41.425Z,98442.59
